sensor_id;sensor_type;location;lat;lon;timestamp;pressure;altitude;pressure_sealevel;temperature;humidity
70758;BME280;59316;52.964;7.102;2022-08-01T00:04:15;101453.63;;;16.77;nan
70758;BME280;59316;52.964;7.102;2022-08-01T00:09:35;101460.41;;;16.70;nan
70758;BME280;59316;52.964;7.102;2022-08-01T00:14:54;101464.16;;;16.67;nan
70758;BME280;59316;52.964;7.102;2022-08-01T00:20:14;101476.72;;;16.65;nan
70758;BME280;59316;52.964;7.102;2022-08-01T00:25:33;101460.97;;;16.64;nan
70758;BME280;59316;52.964;7.102;2022-08-01T00:30:53;101468.31;;;16.60;nan
70758;BME280;59316;52.964;7.102;2022-08-01T00:36:12;101470.66;;;16.53;nan
70758;BME280;59316;52.964;7.102;2022-08-01T00:41:32;101470.28;;;16.47;nan
70758;BME280;59316;52.964;7.102;2022-08-01T00:46:52;101468.41;;;16.37;nan
70758;BME280;59316;52.964;7.102;2022-08-01T00:52:12;101471.97;;;16.27;nan
70758;BME280;59316;52.964;7.102;2022-08-01T00:57:32;101478.47;;;16.22;nan
70758;BME280;59316;52.964;7.102;2022-08-01T01:02:51;101477.03;;;16.18;nan
70758;BME280;59316;52.964;7.102;2022-08-01T01:08:18;101481.50;;;16.18;nan
70758;BME280;59316;52.964;7.102;2022-08-01T01:13:47;101473.31;;;16.21;nan
70758;BME280;59316;52.964;7.102;2022-08-01T01:19:16;101482.78;;;16.24;nan
70758;BME280;59316;52.964;7.102;2022-08-01T01:25:02;101481.47;;;16.29;nan
70758;BME280;59316;52.964;7.102;2022-08-01T01:30:33;101483.25;;;16.29;nan
70758;BME280;59316;52.964;7.102;2022-08-01T01:35:59;101481.69;;;16.26;nan
70758;BME280;59316;52.964;7.102;2022-08-01T01:41:24;101489.91;;;16.23;nan
70758;BME280;59316;52.964;7.102;2022-08-01T01:46:46;101488.50;;;16.19;nan
70758;BME280;59316;52.964;7.102;2022-08-01T01:52:07;101491.63;;;16.13;nan
70758;BME280;59316;52.964;7.102;2022-08-01T01:57:29;101497.03;;;16.11;nan
70758;BME280;59316;52.964;7.102;2022-08-01T02:02:51;101494.50;;;16.10;nan
70758;BME280;59316;52.964;7.102;2022-08-01T02:08:15;101498.72;;;16.12;nan
70758;BME280;59316;52.964;7.102;2022-08-01T02:13:37;101503.88;;;16.14;nan
70758;BME280;59316;52.964;7.102;2022-08-01T02:18:58;101506.41;;;16.15;nan
70758;BME280;59316;52.964;7.102;2022-08-01T02:24:31;101502.22;;;16.13;nan
70758;BME280;59316;52.964;7.102;2022-08-01T02:30:02;101510.78;;;16.05;nan
70758;BME280;59316;52.964;7.102;2022-08-01T02:35:28;101512.84;;;16.01;nan
70758;BME280;59316;52.964;7.102;2022-08-01T02:40:50;101525.34;;;15.99;nan
70758;BME280;59316;52.964;7.102;2022-08-01T02:46:16;101523.16;;;15.93;nan
70758;BME280;59316;52.964;7.102;2022-08-01T02:51:49;101517.31;;;15.89;nan
70758;BME280;59316;52.964;7.102;2022-08-01T02:57:10;101532.19;;;15.91;nan
70758;BME280;59316;52.964;7.102;2022-08-01T03:02:33;101527.03;;;15.89;nan
70758;BME280;59316;52.964;7.102;2022-08-01T03:07:55;101522.47;;;15.91;nan
70758;BME280;59316;52.964;7.102;2022-08-01T03:13:17;101541.13;;;15.89;nan
70758;BME280;59316;52.964;7.102;2022-08-01T03:18:38;101546.03;;;15.83;nan
70758;BME280;59316;52.964;7.102;2022-08-01T03:24:00;101544.44;;;15.80;nan
70758;BME280;59316;52.964;7.102;2022-08-01T03:29:24;101545.78;;;15.75;nan
70758;BME280;59316;52.964;7.102;2022-08-01T03:34:46;101556.84;;;15.68;nan
70758;BME280;59316;52.964;7.102;2022-08-01T03:40:10;101562.38;;;15.65;nan
70758;BME280;59316;52.964;7.102;2022-08-01T03:45:41;101558.66;;;15.56;nan
70758;BME280;59316;52.964;7.102;2022-08-01T03:51:05;101572.09;;;15.53;nan
70758;BME280;59316;52.964;7.102;2022-08-01T03:56:27;101572.34;;;15.50;nan
70758;BME280;59316;52.964;7.102;2022-08-01T04:01:47;101574.13;;;15.50;nan
70758;BME280;59316;52.964;7.102;2022-08-01T04:07:25;101557.09;;;15.54;nan
70758;BME280;59316;52.964;7.102;2022-08-01T04:12:50;101565.84;;;15.54;nan
70758;BME280;59316;52.964;7.102;2022-08-01T04:18:10;101568.16;;;15.59;nan
70758;BME280;59316;52.964;7.102;2022-08-01T04:23:30;101569.22;;;15.56;nan
70758;BME280;59316;52.964;7.102;2022-08-01T04:28:53;101571.41;;;15.51;nan
70758;BME280;59316;52.964;7.102;2022-08-01T04:34:17;101568.28;;;15.57;nan
70758;BME280;59316;52.964;7.102;2022-08-01T04:39:41;101586.41;;;15.62;nan
70758;BME280;59316;52.964;7.102;2022-08-01T04:45:02;101587.25;;;15.74;nan
70758;BME280;59316;52.964;7.102;2022-08-01T04:50:22;101602.06;;;15.88;nan
70758;BME280;59316;52.964;7.102;2022-08-01T04:55:45;101615.78;;;15.93;nan
70758;BME280;59316;52.964;7.102;2022-08-01T05:01:05;101624.72;;;15.92;nan
70758;BME280;59316;52.964;7.102;2022-08-01T05:06:25;101634.31;;;15.82;nan
70758;BME280;59316;52.964;7.102;2022-08-01T05:11:45;101637.28;;;15.66;nan
70758;BME280;59316;52.964;7.102;2022-08-01T05:17:05;101638.22;;;15.65;nan
70758;BME280;59316;52.964;7.102;2022-08-01T05:22:26;101642.81;;;15.63;nan
70758;BME280;59316;52.964;7.102;2022-08-01T05:27:45;101646.28;;;15.63;nan
70758;BME280;59316;52.964;7.102;2022-08-01T05:33:05;101648.53;;;15.45;nan
70758;BME280;59316;52.964;7.102;2022-08-01T05:38:25;101654.63;;;15.34;nan
70758;BME280;59316;52.964;7.102;2022-08-01T05:43:45;101657.97;;;15.25;nan
70758;BME280;59316;52.964;7.102;2022-08-01T05:49:05;101668.56;;;15.25;nan
70758;BME280;59316;52.964;7.102;2022-08-01T05:54:25;101652.06;;;15.21;nan
70758;BME280;59316;52.964;7.102;2022-08-01T05:59:45;101664.09;;;15.14;nan
70758;BME280;59316;52.964;7.102;2022-08-01T06:05:05;101669.75;;;15.21;nan
70758;BME280;59316;52.964;7.102;2022-08-01T06:10:25;101675.53;;;15.26;nan
70758;BME280;59316;52.964;7.102;2022-08-01T06:15:45;101683.50;;;15.37;nan
70758;BME280;59316;52.964;7.102;2022-08-01T06:21:04;101690.47;;;15.50;nan
70758;BME280;59316;52.964;7.102;2022-08-01T06:26:24;101688.50;;;15.65;nan
70758;BME280;59316;52.964;7.102;2022-08-01T06:31:43;101688.75;;;15.73;nan
70758;BME280;59316;52.964;7.102;2022-08-01T06:37:03;101691.94;;;15.89;nan
70758;BME280;59316;52.964;7.102;2022-08-01T06:42:22;101701.81;;;15.99;nan
70758;BME280;59316;52.964;7.102;2022-08-01T06:47:43;101715.88;;;15.99;nan
70758;BME280;59316;52.964;7.102;2022-08-01T06:53:03;101717.91;;;16.07;nan
70758;BME280;59316;52.964;7.102;2022-08-01T06:58:23;101721.06;;;16.12;nan
70758;BME280;59316;52.964;7.102;2022-08-01T07:03:43;101717.81;;;16.20;nan
70758;BME280;59316;52.964;7.102;2022-08-01T07:09:03;101713.25;;;16.33;nan
70758;BME280;59316;52.964;7.102;2022-08-01T07:14:23;101723.69;;;16.58;nan
70758;BME280;59316;52.964;7.102;2022-08-01T07:19:43;101726.94;;;16.61;nan
70758;BME280;59316;52.964;7.102;2022-08-01T07:25:06;101735.94;;;16.70;nan
70758;BME280;59316;52.964;7.102;2022-08-01T07:30:26;101728.84;;;16.82;nan
70758;BME280;59316;52.964;7.102;2022-08-01T07:35:45;101736.66;;;16.83;nan
70758;BME280;59316;52.964;7.102;2022-08-01T07:41:05;101747.88;;;16.76;nan
70758;BME280;59316;52.964;7.102;2022-08-01T07:46:25;101753.16;;;16.87;nan
70758;BME280;59316;52.964;7.102;2022-08-01T07:51:44;101758.47;;;16.98;nan
70758;BME280;59316;52.964;7.102;2022-08-01T07:57:04;101760.00;;;17.12;nan
70758;BME280;59316;52.964;7.102;2022-08-01T08:02:24;101759.94;;;17.24;nan
70758;BME280;59316;52.964;7.102;2022-08-01T08:07:43;101757.84;;;17.39;nan
70758;BME280;59316;52.964;7.102;2022-08-01T08:13:03;101762.81;;;17.53;nan
70758;BME280;59316;52.964;7.102;2022-08-01T08:18:23;101774.25;;;17.65;nan
70758;BME280;59316;52.964;7.102;2022-08-01T08:23:43;101776.81;;;17.55;nan
70758;BME280;59316;52.964;7.102;2022-08-01T08:29:02;101790.28;;;17.63;nan
70758;BME280;59316;52.964;7.102;2022-08-01T08:34:22;101793.09;;;18.04;nan
70758;BME280;59316;52.964;7.102;2022-08-01T08:39:41;101802.41;;;18.41;nan
70758;BME280;59316;52.964;7.102;2022-08-01T08:45:02;101803.44;;;18.59;nan
70758;BME280;59316;52.964;7.102;2022-08-01T08:50:22;101794.66;;;18.99;nan
70758;BME280;59316;52.964;7.102;2022-08-01T08:55:42;101793.72;;;19.89;nan
70758;BME280;59316;52.964;7.102;2022-08-01T09:01:05;101802.31;;;20.30;nan
70758;BME280;59316;52.964;7.102;2022-08-01T09:06:25;101810.75;;;20.63;nan
70758;BME280;59316;52.964;7.102;2022-08-01T09:11:45;101810.50;;;21.12;nan
70758;BME280;59316;52.964;7.102;2022-08-01T09:17:07;101822.47;;;22.51;nan
70758;BME280;59316;52.964;7.102;2022-08-01T09:22:28;101818.06;;;24.01;nan
70758;BME280;59316;52.964;7.102;2022-08-01T09:28:02;101826.81;;;23.95;nan
70758;BME280;59316;52.964;7.102;2022-08-01T09:33:24;101835.16;;;23.92;nan
70758;BME280;59316;52.964;7.102;2022-08-01T09:38:44;101838.00;;;22.47;nan
70758;BME280;59316;52.964;7.102;2022-08-01T09:44:04;101850.84;;;21.27;nan
70758;BME280;59316;52.964;7.102;2022-08-01T09:49:30;101847.06;;;22.97;nan
70758;BME280;59316;52.964;7.102;2022-08-01T09:55:09;101851.25;;;24.00;nan
70758;BME280;59316;52.964;7.102;2022-08-01T10:00:29;101844.34;;;24.14;nan
70758;BME280;59316;52.964;7.102;2022-08-01T10:05:49;101848.75;;;24.55;nan
70758;BME280;59316;52.964;7.102;2022-08-01T10:11:11;101839.53;;;24.66;nan
70758;BME280;59316;52.964;7.102;2022-08-01T10:16:33;101839.34;;;25.30;nan
70758;BME280;59316;52.964;7.102;2022-08-01T10:21:55;101841.53;;;25.35;nan
70758;BME280;59316;52.964;7.102;2022-08-01T10:27:16;101837.53;;;25.31;nan
70758;BME280;59316;52.964;7.102;2022-08-01T10:32:36;101837.28;;;24.30;nan
70758;BME280;59316;52.964;7.102;2022-08-01T10:37:55;101840.59;;;24.96;nan
70758;BME280;59316;52.964;7.102;2022-08-01T10:43:16;101846.19;;;24.78;nan
70758;BME280;59316;52.964;7.102;2022-08-01T10:48:39;101845.78;;;25.91;nan
70758;BME280;59316;52.964;7.102;2022-08-01T10:54:07;101839.66;;;26.50;nan
70758;BME280;59316;52.964;7.102;2022-08-01T10:59:29;101838.44;;;25.46;nan
70758;BME280;59316;52.964;7.102;2022-08-01T11:04:55;101844.94;;;26.28;nan
70758;BME280;59316;52.964;7.102;2022-08-01T11:10:42;101841.25;;;26.29;nan
70758;BME280;59316;52.964;7.102;2022-08-01T11:16:54;101842.31;;;25.12;nan
70758;BME280;59316;52.964;7.102;2022-08-01T11:22:06;101841.97;;;26.08;nan
70758;BME280;59316;52.964;7.102;2022-08-01T11:27:32;101844.88;;;25.98;nan
70758;BME280;59316;52.964;7.102;2022-08-01T11:32:56;101861.09;;;25.21;nan
70758;BME280;59316;52.964;7.102;2022-08-01T11:38:26;101858.25;;;24.18;nan
70758;BME280;59316;52.964;7.102;2022-08-01T11:44:09;101853.72;;;23.85;nan
70758;BME280;59316;52.964;7.102;2022-08-01T12:00:27;101851.31;;;24.96;nan
70758;BME280;59316;52.964;7.102;2022-08-01T12:05:47;101856.66;;;25.59;nan
70758;BME280;59316;52.964;7.102;2022-08-01T12:11:06;101856.13;;;27.07;nan
70758;BME280;59316;52.964;7.102;2022-08-01T12:16:26;101850.03;;;26.38;nan
70758;BME280;59316;52.964;7.102;2022-08-01T12:22:08;101863.03;;;25.27;nan
70758;BME280;59316;52.964;7.102;2022-08-01T12:27:30;101864.47;;;25.14;nan
70758;BME280;59316;52.964;7.102;2022-08-01T12:32:50;101861.78;;;24.83;nan
70758;BME280;59316;52.964;7.102;2022-08-01T12:38:17;101862.38;;;24.93;nan
70758;BME280;59316;52.964;7.102;2022-08-01T12:43:39;101861.84;;;25.61;nan
70758;BME280;59316;52.964;7.102;2022-08-01T12:48:59;101867.94;;;24.92;nan
70758;BME280;59316;52.964;7.102;2022-08-01T12:54:19;101865.72;;;25.27;nan
70758;BME280;59316;52.964;7.102;2022-08-01T12:59:38;101862.13;;;25.43;nan
70758;BME280;59316;52.964;7.102;2022-08-01T13:04:58;101863.81;;;25.67;nan
70758;BME280;59316;52.964;7.102;2022-08-01T13:10:29;101860.53;;;25.57;nan
70758;BME280;59316;52.964;7.102;2022-08-01T13:16:02;101867.69;;;25.10;nan
70758;BME280;59316;52.964;7.102;2022-08-01T13:21:28;101871.94;;;25.82;nan
70758;BME280;59316;52.964;7.102;2022-08-01T13:26:49;101853.94;;;26.65;nan
70758;BME280;59316;52.964;7.102;2022-08-01T13:31:52;101857.34;;;26.89;nan
70758;BME280;59316;52.964;7.102;2022-08-01T13:36:53;101864.25;;;27.50;nan
70758;BME280;59316;52.964;7.102;2022-08-01T13:41:54;101865.19;;;27.86;nan
70758;BME280;59316;52.964;7.102;2022-08-01T13:46:55;101860.81;;;26.53;nan
70758;BME280;59316;52.964;7.102;2022-08-01T13:51:56;101863.50;;;26.23;nan
70758;BME280;59316;52.964;7.102;2022-08-01T13:56:58;101860.69;;;26.91;nan
70758;BME280;59316;52.964;7.102;2022-08-01T14:01:59;101859.84;;;27.42;nan
70758;BME280;59316;52.964;7.102;2022-08-01T14:07:00;101858.56;;;26.87;nan
70758;BME280;59316;52.964;7.102;2022-08-01T14:12:02;101859.16;;;28.40;nan
70758;BME280;59316;52.964;7.102;2022-08-01T14:17:03;101857.97;;;27.43;nan
70758;BME280;59316;52.964;7.102;2022-08-01T14:22:04;101856.44;;;25.84;nan
70758;BME280;59316;52.964;7.102;2022-08-01T14:27:05;101845.97;;;26.27;nan
70758;BME280;59316;52.964;7.102;2022-08-01T14:32:06;101842.25;;;26.28;nan
70758;BME280;59316;52.964;7.102;2022-08-01T14:37:07;101841.44;;;26.73;nan
70758;BME280;59316;52.964;7.102;2022-08-01T14:42:08;101830.47;;;26.59;nan
70758;BME280;59316;52.964;7.102;2022-08-01T14:47:09;101824.66;;;26.41;nan
70758;BME280;59316;52.964;7.102;2022-08-01T14:52:11;101836.78;;;26.22;nan
70758;BME280;59316;52.964;7.102;2022-08-01T14:58:35;101841.25;;;25.53;43.83
70758;BME280;59316;52.964;7.102;2022-08-01T15:03:36;101830.25;;;24.85;40.78
70758;BME280;59316;52.964;7.102;2022-08-01T15:12:17;101845.88;;;23.92;48.70
70758;BME280;59316;52.964;7.102;2022-08-01T15:17:23;101851.56;;;24.78;48.59
70758;BME280;59316;52.964;7.102;2022-08-01T15:22:25;101848.81;;;24.38;48.04
70758;BME280;59316;52.964;7.102;2022-08-01T15:27:27;101849.44;;;24.65;46.79
70758;BME280;59316;52.964;7.102;2022-08-01T15:32:28;101839.94;;;25.49;43.75
70758;BME280;59316;52.964;7.102;2022-08-01T15:37:29;101836.19;;;26.71;42.87
70758;BME280;59316;52.964;7.102;2022-08-01T15:42:31;101837.72;;;26.74;40.69
70758;BME280;59316;52.964;7.102;2022-08-01T15:48:02;101840.13;;;26.84;43.22
70758;BME280;59316;52.964;7.102;2022-08-01T15:53:04;101836.25;;;27.08;41.28
70758;BME280;59316;52.964;7.102;2022-08-01T15:58:05;101839.22;;;27.35;40.64
70758;BME280;59316;52.964;7.102;2022-08-01T16:03:07;101835.25;;;27.30;40.83
70758;BME280;59316;52.964;7.102;2022-08-01T16:08:10;101843.47;;;26.41;39.81
70758;BME280;59316;52.964;7.102;2022-08-01T16:13:12;101845.03;;;26.05;43.13
70758;BME280;59316;52.964;7.102;2022-08-01T16:18:13;101850.63;;;25.95;42.64
70758;BME280;59316;52.964;7.102;2022-08-01T16:23:14;101851.69;;;26.09;42.88
70758;BME280;59316;52.964;7.102;2022-08-01T16:28:16;101850.38;;;25.67;43.40
70758;BME280;59316;52.964;7.102;2022-08-01T16:34:03;101856.75;;;25.11;44.93
70758;BME280;59316;52.964;7.102;2022-08-01T16:39:06;101862.38;;;24.45;46.82
70758;BME280;59316;52.964;7.102;2022-08-01T16:44:08;101853.72;;;24.35;46.16
70758;BME280;59316;52.964;7.102;2022-08-01T16:49:11;101854.00;;;24.48;48.42
70758;BME280;59316;52.964;7.102;2022-08-01T16:54:13;101859.06;;;24.27;48.34
70758;BME280;59316;52.964;7.102;2022-08-01T16:59:26;101875.66;;;23.81;48.51
70758;BME280;59316;52.964;7.102;2022-08-01T17:04:29;101873.16;;;23.54;50.30
70758;BME280;59316;52.964;7.102;2022-08-01T17:09:31;101869.25;;;23.24;52.19
70758;BME280;59316;52.964;7.102;2022-08-01T17:14:32;101867.22;;;22.75;52.09
70758;BME280;59316;52.964;7.102;2022-08-01T17:19:34;101868.31;;;22.64;53.20
70758;BME280;59316;52.964;7.102;2022-08-01T17:24:36;101881.38;;;22.41;54.43
70758;BME280;59316;52.964;7.102;2022-08-01T17:29:38;101877.41;;;21.83;56.21
70758;BME280;59316;52.964;7.102;2022-08-01T17:34:44;101880.06;;;21.47;56.19
70758;BME280;59316;52.964;7.102;2022-08-01T17:39:46;101868.97;;;21.23;58.42
70758;BME280;59316;52.964;7.102;2022-08-01T17:44:47;101871.56;;;20.87;59.92
70758;BME280;59316;52.964;7.102;2022-08-01T17:49:54;101861.75;;;20.40;59.73
70758;BME280;59316;52.964;7.102;2022-08-01T17:54:56;101876.53;;;19.95;62.90
70758;BME280;59316;52.964;7.102;2022-08-01T17:59:58;101883.66;;;19.65;65.52
70758;BME280;59316;52.964;7.102;2022-08-01T18:05:00;101885.53;;;19.24;67.09
70758;BME280;59316;52.964;7.102;2022-08-01T18:10:05;101884.75;;;18.72;68.84
70758;BME280;59316;52.964;7.102;2022-08-01T18:15:12;101890.13;;;18.29;71.78
70758;BME280;59316;52.964;7.102;2022-08-01T18:20:15;101897.94;;;17.77;72.91
70758;BME280;59316;52.964;7.102;2022-08-01T18:25:17;101899.03;;;17.19;75.35
70758;BME280;59316;52.964;7.102;2022-08-01T18:30:19;101908.75;;;16.74;78.89
70758;BME280;59316;52.964;7.102;2022-08-01T18:35:21;101912.06;;;16.30;80.28
70758;BME280;59316;52.964;7.102;2022-08-01T18:40:43;101908.81;;;15.91;82.28
70758;BME280;59316;52.964;7.102;2022-08-01T18:45:45;101911.03;;;15.60;84.83
70758;BME280;59316;52.964;7.102;2022-08-01T18:50:46;101907.75;;;15.19;86.08
70758;BME280;59316;52.964;7.102;2022-08-01T18:55:48;101910.00;;;14.87;89.90
70758;BME280;59316;52.964;7.102;2022-08-01T19:00:50;101907.53;;;14.58;91.42
70758;BME280;59316;52.964;7.102;2022-08-01T19:05:52;101919.03;;;14.31;92.27
70758;BME280;59316;52.964;7.102;2022-08-01T19:10:54;101917.66;;;13.98;93.70
70758;BME280;59316;52.964;7.102;2022-08-01T19:15:56;101925.38;;;13.74;95.25
70758;BME280;59316;52.964;7.102;2022-08-01T19:20:58;101919.22;;;13.46;96.92
70758;BME280;59316;52.964;7.102;2022-08-01T19:26:03;101926.75;;;13.23;98.05
70758;BME280;59316;52.964;7.102;2022-08-01T19:31:06;101921.88;;;13.03;100.00
70758;BME280;59316;52.964;7.102;2022-08-01T19:36:14;101912.94;;;12.76;100.00
70758;BME280;59316;52.964;7.102;2022-08-01T19:41:17;101917.00;;;12.52;100.00
70758;BME280;59316;52.964;7.102;2022-08-01T19:46:19;101923.63;;;12.28;100.00
70758;BME280;59316;52.964;7.102;2022-08-01T19:51:22;101937.53;;;12.00;100.00
70758;BME280;59316;52.964;7.102;2022-08-01T19:56:38;101933.53;;;11.77;100.00
70758;BME280;59316;52.964;7.102;2022-08-01T20:01:42;101941.09;;;11.51;100.00
70758;BME280;59316;52.964;7.102;2022-08-01T20:06:45;101944.09;;;11.27;100.00
70758;BME280;59316;52.964;7.102;2022-08-01T20:11:49;101945.59;;;11.15;100.00
70758;BME280;59316;52.964;7.102;2022-08-01T20:16:53;101953.81;;;10.92;100.00
70758;BME280;59316;52.964;7.102;2022-08-01T20:22:03;101950.78;;;10.66;100.00
70758;BME280;59316;52.964;7.102;2022-08-01T20:27:06;101939.66;;;10.43;100.00
70758;BME280;59316;52.964;7.102;2022-08-01T20:32:08;101931.59;;;10.29;100.00
70758;BME280;59316;52.964;7.102;2022-08-01T20:37:10;101941.69;;;10.19;100.00
70758;BME280;59316;52.964;7.102;2022-08-01T20:42:14;101934.19;;;10.11;100.00
70758;BME280;59316;52.964;7.102;2022-08-01T20:47:16;101936.09;;;9.90;100.00
70758;BME280;59316;52.964;7.102;2022-08-01T20:52:18;101944.06;;;9.70;100.00
70758;BME280;59316;52.964;7.102;2022-08-01T20:57:22;101938.47;;;9.58;100.00
70758;BME280;59316;52.964;7.102;2022-08-01T21:02:53;101941.22;;;9.55;100.00
70758;BME280;59316;52.964;7.102;2022-08-01T21:08:13;101939.66;;;9.51;100.00
70758;BME280;59316;52.964;7.102;2022-08-01T21:13:24;101941.78;;;9.43;100.00
70758;BME280;59316;52.964;7.102;2022-08-01T21:18:36;101935.84;;;9.39;100.00
70758;BME280;59316;52.964;7.102;2022-08-01T21:28:47;101948.63;;;9.26;100.00
70758;BME280;59316;52.964;7.102;2022-08-01T21:33:59;101930.00;;;9.13;100.00
70758;BME280;59316;52.964;7.102;2022-08-01T21:39:05;101926.81;;;9.07;100.00
70758;BME280;59316;52.964;7.102;2022-08-01T21:44:08;101920.94;;;9.01;100.00
70758;BME280;59316;52.964;7.102;2022-08-01T21:49:11;101937.69;;;8.97;100.00
70758;BME280;59316;52.964;7.102;2022-08-01T21:54:25;101944.25;;;8.87;100.00
70758;BME280;59316;52.964;7.102;2022-08-01T22:04:44;101949.72;;;8.81;100.00
70758;BME280;59316;52.964;7.102;2022-08-01T22:09:49;101963.28;;;8.91;100.00
70758;BME280;59316;52.964;7.102;2022-08-01T22:14:52;101959.28;;;8.82;100.00
70758;BME280;59316;52.964;7.102;2022-08-01T22:19:56;101951.84;;;8.73;100.00
70758;BME280;59316;52.964;7.102;2022-08-01T22:24:59;101953.91;;;8.64;100.00
70758;BME280;59316;52.964;7.102;2022-08-01T22:30:05;101966.19;;;8.42;100.00
70758;BME280;59316;52.964;7.102;2022-08-01T22:35:14;101958.19;;;8.45;100.00
70758;BME280;59316;52.964;7.102;2022-08-01T22:40:17;101959.72;;;8.28;100.00
70758;BME280;59316;52.964;7.102;2022-08-01T22:45:24;101962.47;;;8.25;100.00
70758;BME280;59316;52.964;7.102;2022-08-01T22:50:35;101951.59;;;8.14;100.00
70758;BME280;59316;52.964;7.102;2022-08-01T22:55:42;101945.53;;;8.13;100.00
70758;BME280;59316;52.964;7.102;2022-08-01T23:01:01;101947.72;;;8.02;100.00
70758;BME280;59316;52.964;7.102;2022-08-01T23:06:09;101954.31;;;7.88;100.00
70758;BME280;59316;52.964;7.102;2022-08-01T23:11:11;101946.19;;;7.74;100.00
70758;BME280;59316;52.964;7.102;2022-08-01T23:16:13;101959.53;;;7.66;100.00
70758;BME280;59316;52.964;7.102;2022-08-01T23:21:21;101955.56;;;7.56;100.00
70758;BME280;59316;52.964;7.102;2022-08-01T23:26:25;101946.88;;;7.55;100.00
70758;BME280;59316;52.964;7.102;2022-08-01T23:31:27;101951.25;;;7.55;100.00
70758;BME280;59316;52.964;7.102;2022-08-01T23:36:49;101946.25;;;7.73;100.00
70758;BME280;59316;52.964;7.102;2022-08-01T23:41:51;101942.59;;;7.77;100.00
70758;BME280;59316;52.964;7.102;2022-08-01T23:47:08;101939.47;;;7.67;100.00
70758;BME280;59316;52.964;7.102;2022-08-01T23:52:15;101935.53;;;7.57;100.00
70758;BME280;59316;52.964;7.102;2022-08-01T23:57:22;101932.81;;;7.60;100.00
